Time;durP1;ratioP1;P1;durP2;ratioP2;P2;SDS_P1;SDS_P2;PMS_P1;PMS_P2;Temp;Humidity;BMP_temperature;BMP_pressure;BME280_temperature;BME280_humidity;BME280_pressure;Samples;Min_cycle;Max_cycle;Signal;HPM_P1;HPM_P2
2022/04/09 00:00:50;;;;;;;10.88;1.80;;;4.70;99.90;;;;;;5013602;28;20396;-47
2022/04/09 00:03:16;;;;;;;10.98;2.25;;;4.70;99.90;;;;;;5012955;28;20088;-48
2022/04/09 00:05:42;;;;;;;12.52;2.15;;;4.60;99.90;;;;;;5012046;28;20135;-51
2022/04/09 00:08:08;;;;;;;9.43;1.80;;;4.60;99.90;;;;;;5013213;28;20079;-50
2022/04/09 00:10:34;;;;;;;11.25;1.60;;;4.60;99.90;;;;;;5011709;28;20063;-51
2022/04/09 00:12:59;;;;;;;11.30;2.03;;;4.50;99.90;;;;;;5013034;28;20470;-47
2022/04/09 00:15:25;;;;;;;9.90;1.88;;;4.60;99.90;;;;;;5013483;28;20030;-49
2022/04/09 00:17:51;;;;;;;9.32;1.58;;;4.50;99.90;;;;;;5013621;28;22182;-50
2022/04/09 00:20:18;;;;;;;13.55;2.00;;;4.40;99.90;;;;;;5013407;28;20524;-49
2022/04/09 00:22:44;;;;;;;10.13;1.58;;;4.40;99.90;;;;;;5013179;28;20131;-51
2022/04/09 00:25:13;;;;;;;7.03;1.85;;;4.50;99.90;;;;;;5013291;28;20481;-49
2022/04/09 00:27:39;;;;;;;11.73;1.70;;;4.50;99.90;;;;;;5013441;28;20041;-48
2022/04/09 00:30:07;;;;;;;10.43;2.08;;;4.60;99.90;;;;;;5012854;28;20049;-50
2022/04/09 00:32:33;;;;;;;8.57;1.85;;;4.60;99.90;;;;;;5013254;28;20119;-48
2022/04/09 00:34:59;;;;;;;13.23;2.60;;;4.60;99.90;;;;;;5012855;28;20125;-49
2022/04/09 00:37:25;;;;;;;13.40;2.22;;;4.70;99.90;;;;;;5013016;28;20110;-47
2022/04/09 00:39:50;;;;;;;9.02;1.60;;;4.60;99.90;;;;;;5013092;28;20048;-46
2022/04/09 00:42:18;;;;;;;9.90;1.50;;;4.50;99.90;;;;;;5012177;28;20442;-48
2022/04/09 00:44:44;;;;;;;11.00;2.00;;;4.50;99.90;;;;;;5012726;28;20049;-48
2022/04/09 00:47:11;;;;;;;10.18;1.75;;;4.40;99.90;;;;;;5012574;28;20050;-47
2022/04/09 00:49:39;;;;;;;9.80;1.60;;;4.30;99.90;;;;;;5010797;28;20058;-49
2022/04/09 00:52:07;;;;;;;14.13;1.95;;;4.30;99.90;;;;;;5012857;28;20034;-50
2022/04/09 00:54:36;;;;;;;14.57;1.67;;;4.30;99.90;;;;;;5012733;28;20394;-50
2022/04/09 00:57:05;;;;;;;9.73;1.50;;;4.30;99.90;;;;;;5012923;28;20408;-49
2022/04/09 00:59:33;;;;;;;9.93;1.63;;;4.30;99.90;;;;;;5012474;28;20033;-47
2022/04/09 01:01:59;;;;;;;13.23;1.63;;;4.30;99.90;;;;;;5012567;28;20041;-49
2022/04/09 01:04:25;;;;;;;9.02;1.65;;;4.30;99.90;;;;;;5012336;28;20046;-50
2022/04/09 01:06:51;;;;;;;9.02;1.77;;;4.30;99.90;;;;;;5012143;28;20389;-47
2022/04/09 01:09:17;;;;;;;10.75;1.90;;;4.40;99.90;;;;;;5012632;28;20042;-48
2022/04/09 01:11:43;;;;;;;10.30;1.83;;;4.30;99.90;;;;;;5011813;28;20186;-49
2022/04/09 01:14:12;;;;;;;11.57;1.92;;;4.30;99.90;;;;;;5011160;28;20535;-49
2022/04/09 01:16:38;;;;;;;11.70;1.85;;;4.30;99.90;;;;;;5012410;28;20041;-49
2022/04/09 01:19:04;;;;;;;10.50;1.83;;;4.40;99.90;;;;;;5011825;28;20042;-52
2022/04/09 01:21:30;;;;;;;8.63;1.50;;;4.50;99.90;;;;;;5012219;28;20407;-50
2022/04/09 01:23:57;;;;;;;9.50;1.58;;;4.50;99.90;;;;;;5012008;28;20069;-50
2022/04/09 01:26:23;;;;;;;6.70;1.50;;;4.40;99.90;;;;;;5012017;28;20041;-50
2022/04/09 01:28:49;;;;;;;10.10;1.63;;;4.50;99.90;;;;;;5012215;28;20041;-48
2022/04/09 01:31:16;;;;;;;11.85;1.63;;;4.50;99.90;;;;;;5011429;28;20042;-47
2022/04/09 01:33:43;;;;;;;8.60;1.40;;;4.40;99.90;;;;;;5010973;28;20362;-49
2022/04/09 01:36:09;;;;;;;7.82;1.10;;;4.50;99.90;;;;;;5011855;28;20038;-48
2022/04/09 01:38:35;;;;;;;10.07;1.42;;;4.40;99.90;;;;;;5012432;28;20036;-48
2022/04/09 01:41:02;;;;;;;13.15;1.80;;;4.40;99.90;;;;;;5011754;28;20275;-48
2022/04/09 01:43:28;;;;;;;8.20;1.30;;;4.30;99.90;;;;;;5011277;28;20065;-49
2022/04/09 01:45:54;;;;;;;7.82;1.42;;;4.20;99.90;;;;;;5011546;28;20065;-49
2022/04/09 01:48:20;;;;;;;8.73;1.60;;;4.30;99.90;;;;;;5011408;28;20050;-50
2022/04/09 01:50:46;;;;;;;7.57;1.23;;;4.20;99.90;;;;;;5011693;28;20053;-51
2022/04/09 01:53:12;;;;;;;9.25;1.70;;;4.20;99.90;;;;;;5009351;28;20477;-48
2022/04/09 01:55:38;;;;;;;9.63;1.48;;;4.10;99.90;;;;;;5011371;28;20460;-48
2022/04/09 01:58:04;;;;;;;7.85;1.40;;;4.10;99.90;;;;;;5011252;28;20045;-49
2022/04/09 02:00:30;;;;;;;6.45;1.80;;;4.10;99.90;;;;;;5011193;28;20428;-48
2022/04/09 02:02:56;;;;;;;9.80;1.60;;;4.10;99.90;;;;;;5010726;28;20449;-49
2022/04/09 02:05:23;;;;;;;6.63;1.70;;;4.10;99.90;;;;;;5011570;28;20116;-48
2022/04/09 02:07:48;;;;;;;9.77;1.67;;;4.10;99.90;;;;;;5010859;28;20038;-49
2022/04/09 02:10:16;;;;;;;9.90;1.40;;;4.40;99.90;;;;;;5011104;28;20057;-47
2022/04/09 02:12:42;;;;;;;10.90;1.73;;;4.20;99.90;;;;;;5010381;28;20107;-51
2022/04/09 02:15:10;;;;;;;9.38;1.73;;;4.30;99.90;;;;;;4999705;28;20030;-46
2022/04/09 02:17:40;;;;;;;12.48;1.98;;;4.30;99.90;;;;;;5011095;28;20030;-51
2022/04/09 02:20:07;;;;;;;8.88;1.60;;;4.30;99.90;;;;;;5009493;28;20457;-50
2022/04/09 02:22:38;;;;;;;12.98;1.67;;;4.30;99.90;;;;;;5006362;28;20037;-49
2022/04/09 02:25:04;;;;;;;9.18;1.65;;;4.30;99.90;;;;;;5009963;28;20080;-50
2022/04/09 02:27:30;;;;;;;9.18;2.20;;;4.20;99.90;;;;;;5011104;28;20077;-50
2022/04/09 02:29:56;;;;;;;15.75;2.17;;;4.20;99.90;;;;;;5010852;28;20076;-50
2022/04/09 02:32:22;;;;;;;10.15;2.15;;;4.40;99.90;;;;;;5007137;28;20037;-47
2022/04/09 02:34:49;;;;;;;8.10;1.40;;;4.30;99.90;;;;;;5007847;28;20038;-50
2022/04/09 02:37:15;;;;;;;10.27;1.90;;;4.30;99.90;;;;;;5010974;28;20046;-50
2022/04/09 02:39:41;;;;;;;8.32;1.77;;;4.20;99.90;;;;;;5010821;28;20476;-50
2022/04/09 02:42:06;;;;;;;9.63;1.25;;;4.30;99.90;;;;;;5008953;28;20132;-50
2022/04/09 02:44:32;;;;;;;9.02;1.25;;;4.30;99.90;;;;;;5004066;28;20084;-50
2022/04/09 02:46:58;;;;;;;10.23;1.60;;;4.30;99.90;;;;;;5007281;28;20078;-50
2022/04/09 02:49:24;;;;;;;9.27;1.40;;;4.20;99.90;;;;;;5005981;28;20124;-51
2022/04/09 02:51:50;;;;;;;10.07;1.33;;;4.10;99.90;;;;;;5009978;28;20041;-46
2022/04/09 02:54:16;;;;;;;8.38;1.20;;;4.10;99.90;;;;;;5008296;28;20497;-49
2022/04/09 02:56:43;;;;;;;8.63;1.58;;;4.10;99.90;;;;;;5009957;28;20168;-48
2022/04/09 02:59:13;;;;;;;5.47;1.27;;;4.10;99.90;;;;;;5009645;28;20045;-48
2022/04/09 03:01:46;;;;;;;7.32;1.20;;;4.00;99.90;;;;;;5004452;28;20121;-53
2022/04/09 03:04:15;;;;;;;7.55;1.48;;;4.10;99.90;;;;;;5006301;28;20166;-49
2022/04/09 03:06:41;;;;;;;11.25;1.50;;;4.10;99.90;;;;;;5008320;28;20124;-48
2022/04/09 03:09:07;;;;;;;10.07;1.77;;;4.10;99.90;;;;;;5009352;28;20169;-47
2022/04/09 03:11:32;;;;;;;9.05;1.50;;;4.20;99.90;;;;;;5009593;28;20156;-51
2022/04/09 03:13:58;;;;;;;7.88;1.42;;;4.10;99.90;;;;;;5009232;28;20034;-50
2022/04/09 03:16:24;;;;;;;8.32;1.67;;;4.10;99.90;;;;;;5009266;28;20042;-50
2022/04/09 03:18:49;;;;;;;7.72;1.40;;;4.20;99.90;;;;;;5009575;28;20026;-47
2022/04/09 03:21:15;;;;;;;9.15;1.55;;;4.10;99.90;;;;;;5009561;28;20046;-47
2022/04/09 03:23:41;;;;;;;13.13;1.88;;;4.00;99.90;;;;;;5008647;28;20041;-48
2022/04/09 03:26:07;;;;;;;8.80;1.60;;;4.00;99.90;;;;;;5009808;28;20123;-49
2022/04/09 03:28:32;;;;;;;8.52;1.50;;;4.00;99.90;;;;;;5011619;28;20453;-50
2022/04/09 03:30:59;;;;;;;10.40;1.45;;;4.00;99.90;;;;;;5012896;28;20045;-50
2022/04/09 03:33:25;;;;;;;16.50;1.80;;;3.90;99.90;;;;;;5011931;28;20037;-50
2022/04/09 03:35:51;;;;;;;5.78;1.60;;;3.80;99.90;;;;;;5012628;28;20124;-49
2022/04/09 03:38:17;;;;;;;9.88;1.60;;;3.90;99.90;;;;;;5012860;28;20386;-50
2022/04/09 03:40:43;;;;;;;9.57;1.58;;;4.00;99.90;;;;;;5012934;28;20100;-48
2022/04/09 03:43:09;;;;;;;13.50;1.73;;;3.90;99.90;;;;;;5012178;28;20074;-48
2022/04/09 03:45:34;;;;;;;9.07;1.50;;;3.90;99.90;;;;;;5011637;28;20049;-49
2022/04/09 03:48:01;;;;;;;9.07;1.77;;;4.00;99.90;;;;;;4958462;28;1074631;-47
2022/04/09 03:50:27;;;;;;;15.50;2.03;;;4.10;99.90;;;;;;4991816;28;20101;-47
2022/04/09 03:52:52;;;;;;;10.02;1.63;;;4.20;99.90;;;;;;4988682;28;20461;-51
2022/04/09 03:55:18;;;;;;;10.35;1.73;;;4.30;99.90;;;;;;4993253;28;20039;-47
2022/04/09 03:57:44;;;;;;;8.25;1.35;;;4.30;99.90;;;;;;4994371;28;20042;-47
2022/04/09 04:00:10;;;;;;;8.63;1.63;;;4.40;99.90;;;;;;4994407;28;20038;-49
2022/04/09 04:02:36;;;;;;;5.53;1.35;;;4.30;99.90;;;;;;4974730;28;20049;-48
2022/04/09 04:05:03;;;;;;;6.35;1.52;;;4.40;99.90;;;;;;4994104;28;20038;-49
2022/04/09 04:07:30;;;;;;;10.07;1.55;;;4.30;99.90;;;;;;4994044;28;20045;-49
2022/04/09 04:10:00;;;;;;;8.55;1.35;;;4.30;99.90;;;;;;4994214;28;20130;-47
2022/04/09 04:12:28;;;;;;;8.60;1.13;;;4.30;99.90;;;;;;4993853;28;20034;-50
2022/04/09 04:14:54;;;;;;;7.50;1.33;;;4.20;99.90;;;;;;4993946;28;20042;-48
2022/04/09 04:17:19;;;;;;;6.05;1.15;;;4.20;99.90;;;;;;4993856;28;20046;-47
2022/04/09 04:19:45;;;;;;;9.05;1.23;;;4.30;99.90;;;;;;4993855;28;20398;-47
2022/04/09 04:22:11;;;;;;;5.53;1.10;;;4.30;99.90;;;;;;4993526;28;20100;-49
2022/04/09 04:24:37;;;;;;;8.38;1.50;;;4.20;99.90;;;;;;4993743;28;20034;-51
2022/04/09 04:27:04;;;;;;;10.20;1.52;;;4.30;99.90;;;;;;4993837;28;20388;-50
2022/04/09 04:29:31;;;;;;;9.52;1.90;;;4.30;99.90;;;;;;4993605;28;20473;-47
2022/04/09 04:31:56;;;;;;;7.40;1.40;;;4.30;99.90;;;;;;4993797;28;20125;-50
2022/04/09 04:34:22;;;;;;;8.25;1.50;;;4.30;99.90;;;;;;4992355;28;20616;-52
2022/04/09 04:36:48;;;;;;;6.72;1.50;;;4.30;99.90;;;;;;4993418;28;20402;-50
2022/04/09 04:39:13;;;;;;;11.43;1.83;;;4.40;99.90;;;;;;4993396;28;20096;-48
2022/04/09 04:41:39;;;;;;;12.13;1.80;;;4.40;99.90;;;;;;4993408;28;20081;-47
2022/04/09 04:44:06;;;;;;;8.75;1.48;;;4.40;99.90;;;;;;4993312;28;20445;-48
2022/04/09 04:46:32;;;;;;;16.15;2.10;;;4.40;99.90;;;;;;4980507;28;20543;-46
2022/04/09 04:48:57;;;;;;;12.63;1.92;;;4.40;99.90;;;;;;5013101;28;20041;-50
2022/04/09 04:51:23;;;;;;;8.25;1.55;;;4.50;99.90;;;;;;5013006;28;20034;-49
2022/04/09 04:53:48;;;;;;;8.90;1.70;;;4.40;99.90;;;;;;5012860;28;20416;-50
2022/04/09 04:56:14;;;;;;;14.85;1.60;;;4.50;99.90;;;;;;5010990;28;20116;-47
2022/04/09 04:58:40;;;;;;;12.05;1.65;;;4.50;99.90;;;;;;5012499;28;20445;-47
2022/04/09 05:01:07;;;;;;;13.50;1.70;;;4.40;99.90;;;;;;4992690;28;20037;-51
2022/04/09 05:03:33;;;;;;;7.22;1.67;;;4.30;99.90;;;;;;5011353;28;20053;-47
2022/04/09 05:05:58;;;;;;;12.45;2.20;;;4.20;99.90;;;;;;5012606;28;20034;-52
2022/04/09 05:08:25;;;;;;;8.70;1.60;;;4.20;99.90;;;;;;5012543;28;20040;-48
2022/04/09 05:10:51;;;;;;;11.43;1.48;;;4.20;99.90;;;;;;5012543;28;20057;-49
2022/04/09 05:13:17;;;;;;;8.00;1.40;;;4.10;99.90;;;;;;5012120;28;20061;-50
2022/04/09 05:15:43;;;;;;;7.15;1.35;;;4.10;99.90;;;;;;5012636;28;20026;-51
2022/04/09 05:18:08;;;;;;;11.23;1.90;;;4.10;99.90;;;;;;5012657;28;20064;-50
2022/04/09 05:20:34;;;;;;;12.20;2.13;;;4.10;99.90;;;;;;5011173;28;20064;-49
2022/04/09 05:23:01;;;;;;;14.00;1.77;;;4.10;99.90;;;;;;5012319;28;20091;-51
2022/04/09 05:25:31;;;;;;;9.85;2.10;;;4.10;99.90;;;;;;5012061;28;20053;-49
2022/04/09 05:28:01;;;;;;;11.07;1.77;;;4.00;99.90;;;;;;5012342;28;20138;-51
2022/04/09 05:30:27;;;;;;;11.77;2.00;;;4.00;99.90;;;;;;5012326;28;20045;-50
2022/04/09 05:32:53;;;;;;;12.73;2.03;;;4.00;99.90;;;;;;5012360;28;20038;-52
2022/04/09 05:35:18;;;;;;;14.00;2.05;;;4.10;99.90;;;;;;4994334;28;20044;-52
2022/04/09 05:37:46;;;;;;;13.95;2.05;;;4.30;99.90;;;;;;5011982;28;20073;-49
2022/04/09 05:40:12;;;;;;;8.73;1.88;;;4.40;99.90;;;;;;5011759;28;20052;-49
2022/04/09 05:42:38;;;;;;;10.60;2.20;;;4.60;99.90;;;;;;5011449;28;20042;-48
2022/04/09 05:45:04;;;;;;;13.15;1.90;;;4.80;99.90;;;;;;5011812;28;20042;-51
2022/04/09 05:47:30;;;;;;;12.77;2.10;;;4.80;99.90;;;;;;4997468;28;20066;-50
2022/04/09 05:49:58;;;;;;;9.90;2.05;;;4.90;99.90;;;;;;4991064;28;20058;-51
2022/04/09 05:52:24;;;;;;;16.60;2.10;;;4.90;99.90;;;;;;4984432;28;20034;-50
2022/04/09 05:54:49;;;;;;;10.23;2.00;;;4.90;99.90;;;;;;4983036;28;20038;-49
2022/04/09 05:57:16;;;;;;;11.30;1.98;;;5.00;99.90;;;;;;4985912;28;20042;-49
2022/04/09 05:59:41;;;;;;;13.68;1.83;;;5.20;99.90;;;;;;4988629;28;20045;-51
2022/04/09 06:02:08;;;;;;;14.05;1.92;;;5.40;99.90;;;;;;4988518;28;20142;-48
2022/04/09 06:04:33;;;;;;;10.25;1.85;;;5.50;99.90;;;;;;4984847;28;20130;-51
2022/04/09 06:07:02;;;;;;;10.63;2.08;;;5.60;99.90;;;;;;4984296;28;20537;-51
2022/04/09 06:09:29;;;;;;;9.40;2.10;;;5.50;99.90;;;;;;4988797;28;20481;-48
2022/04/09 06:11:55;;;;;;;8.85;1.65;;;5.40;99.90;;;;;;4989424;28;20038;-48
2022/04/09 06:14:20;;;;;;;11.35;1.67;;;5.20;99.90;;;;;;4988797;28;20480;-52
2022/04/09 06:16:46;;;;;;;9.85;1.95;;;5.10;99.90;;;;;;4987784;28;20386;-47
2022/04/09 06:19:12;;;;;;;6.93;1.52;;;5.10;99.90;;;;;;4989509;28;20485;-45
2022/04/09 06:21:38;;;;;;;7.90;1.65;;;4.90;99.90;;;;;;4963679;28;20038;-48
2022/04/09 06:24:04;;;;;;;8.50;1.73;;;4.90;99.90;;;;;;4988363;28;20070;-48
2022/04/09 06:26:29;;;;;;;6.95;1.50;;;4.80;99.90;;;;;;4982318;28;20105;-51
2022/04/09 06:28:55;;;;;;;8.02;1.40;;;4.90;99.90;;;;;;4985383;28;20042;-48
2022/04/09 06:31:21;;;;;;;9.63;1.27;;;4.90;99.90;;;;;;4989168;28;20046;-47
2022/04/09 06:33:47;;;;;;;10.73;1.30;;;5.00;99.90;;;;;;4989237;28;20038;-47
2022/04/09 06:36:13;;;;;;;6.78;1.52;;;5.10;99.90;;;;;;4989676;28;20093;-47
2022/04/09 06:38:38;;;;;;;10.23;1.58;;;5.10;99.90;;;;;;4988748;28;20049;-49
2022/04/09 06:41:04;;;;;;;7.70;1.55;;;5.20;99.90;;;;;;4989816;28;20073;-47
2022/04/09 06:43:30;;;;;;;11.60;1.65;;;5.20;99.90;;;;;;4969708;28;20104;-50
2022/04/09 06:45:56;;;;;;;6.15;1.17;;;5.30;99.90;;;;;;4984566;28;20042;-50
2022/04/09 06:48:22;;;;;;;5.55;1.42;;;5.40;99.90;;;;;;4987606;28;20090;-53
2022/04/09 06:50:48;;;;;;;7.18;0.98;;;5.50;99.90;;;;;;4988708;28;20042;-51
2022/04/09 06:53:14;;;;;;;9.00;1.30;;;5.60;99.90;;;;;;4989340;28;20085;-49
2022/04/09 06:55:41;;;;;;;6.95;1.20;;;5.70;99.90;;;;;;4988469;28;20042;-51
2022/04/09 06:58:06;;;;;;;8.25;1.40;;;5.70;99.90;;;;;;4988802;28;20046;-50
2022/04/09 07:00:33;;;;;;;10.30;1.23;;;5.80;99.90;;;;;;4989301;28;20049;-51
2022/04/09 07:03:00;;;;;;;9.48;1.13;;;5.90;99.90;;;;;;4986706;28;20039;-49
2022/04/09 07:05:27;;;;;;;9.07;1.10;;;6.00;99.90;;;;;;4984285;28;20038;-47
2022/04/09 07:07:53;;;;;;;4.45;1.20;;;6.20;99.90;;;;;;4985235;28;20041;-46
2022/04/09 07:10:19;;;;;;;8.10;2.10;;;6.30;99.90;;;;;;4980850;28;20042;-49
2022/04/09 07:12:45;;;;;;;5.75;1.35;;;6.30;99.90;;;;;;4984543;28;20120;-48
2022/04/09 07:15:11;;;;;;;9.13;1.30;;;6.20;99.90;;;;;;4984413;28;20593;-48
2022/04/09 07:17:38;;;;;;;8.63;1.55;;;6.20;99.90;;;;;;4967755;28;20125;-46
2022/04/09 07:20:06;;;;;;;4.88;1.08;;;6.10;99.90;;;;;;4986586;28;20043;-50
2022/04/09 07:22:33;;;;;;;6.63;1.13;;;6.10;99.90;;;;;;4986517;28;20038;-49
2022/04/09 07:24:59;;;;;;;7.72;1.20;;;6.20;99.90;;;;;;4981670;28;20066;-49
2022/04/09 07:27:39;;;;;;;8.73;1.13;;;6.20;99.90;;;;;;4975794;28;20039;-47
2022/04/09 07:30:17;;;;;;;8.13;1.20;;;6.30;99.90;;;;;;4987573;28;20046;-50
2022/04/09 07:32:43;;;;;;;5.85;1.02;;;6.20;99.90;;;;;;4985904;28;20030;-46
2022/04/09 07:35:11;;;;;;;6.93;1.08;;;6.30;99.90;;;;;;4982963;28;20096;-46
2022/04/09 07:37:40;;;;;;;6.80;1.40;;;6.30;99.90;;;;;;4979592;28;20052;-49
2022/04/09 07:40:08;;;;;;;7.47;1.02;;;6.30;99.90;;;;;;4981963;28;20043;-51
2022/04/09 07:42:34;;;;;;;4.85;1.05;;;6.40;99.90;;;;;;4977461;28;20046;-51
2022/04/09 07:44:59;;;;;;;9.15;1.50;;;6.50;99.90;;;;;;4982258;28;20057;-53
2022/04/09 07:47:25;;;;;;;9.10;1.30;;;6.60;99.90;;;;;;4996523;28;20053;-51
2022/04/09 07:49:51;;;;;;;8.82;1.40;;;6.70;99.90;;;;;;5004184;28;20054;-52
2022/04/09 07:52:17;;;;;;;14.75;1.80;;;6.70;99.90;;;;;;5003761;28;20046;-52
2022/04/09 07:54:42;;;;;;;7.72;1.17;;;6.90;99.90;;;;;;5004545;28;20536;-49
2022/04/09 07:57:08;;;;;;;9.57;1.67;;;6.90;99.90;;;;;;5009351;28;20041;-47
2022/04/09 07:59:36;;;;;;;8.00;1.40;;;6.80;99.90;;;;;;5006485;28;20061;-49
2022/04/09 08:02:02;;;;;;;10.13;1.30;;;6.80;99.90;;;;;;5004962;28;20037;-47
2022/04/09 08:04:28;;;;;;;8.23;1.23;;;6.70;99.90;;;;;;5005802;28;20485;-50
2022/04/09 08:06:54;;;;;;;10.70;1.98;;;6.80;99.90;;;;;;5004997;28;20041;-49
2022/04/09 08:09:19;;;;;;;10.52;1.88;;;7.00;99.90;;;;;;4983013;28;20037;-48
2022/04/09 08:11:46;;;;;;;9.73;1.60;;;7.00;99.90;;;;;;5007657;28;20082;-51
2022/04/09 08:14:12;;;;;;;10.75;1.63;;;7.20;99.90;;;;;;5009616;28;20246;-51
2022/04/09 08:16:38;;;;;;;12.75;2.22;;;7.20;99.90;;;;;;5011707;28;20120;-50
2022/04/09 08:19:04;;;;;;;12.05;2.13;;;7.30;99.90;;;;;;5009410;28;20204;-53
2022/04/09 08:21:29;;;;;;;8.23;1.50;;;7.40;99.90;;;;;;5009437;28;20053;-50
2022/04/09 08:23:55;;;;;;;9.93;1.40;;;7.20;99.90;;;;;;5012449;28;20034;-50
2022/04/09 08:26:21;;;;;;;11.27;1.20;;;6.80;99.90;;;;;;5008677;28;20508;-54
2022/04/09 08:28:46;;;;;;;6.78;1.20;;;6.70;99.90;;;;;;5008977;28;20048;-50
2022/04/09 08:31:12;;;;;;;6.95;1.20;;;6.70;99.90;;;;;;4994453;28;20169;-52
2022/04/09 08:33:40;;;;;;;7.07;1.25;;;6.70;99.90;;;;;;5009274;28;20095;-50
2022/04/09 08:36:06;;;;;;;8.57;1.42;;;6.70;99.90;;;;;;5009983;28;20030;-50
2022/04/09 08:38:32;;;;;;;8.57;1.30;;;7.00;99.90;;;;;;4996794;28;20049;-46
2022/04/09 08:41:03;;;;;;;12.70;1.80;;;7.30;99.90;;;;;;4992144;28;20433;-49
2022/04/09 08:43:30;;;;;;;8.10;1.52;;;7.10;99.90;;;;;;5008439;28;20045;-48
2022/04/09 08:46:00;;;;;;;8.27;1.15;;;7.00;99.90;;;;;;5011365;28;20124;-50
2022/04/09 08:48:27;;;;;;;6.82;1.13;;;6.50;99.90;;;;;;5001994;28;20524;-47
2022/04/09 08:50:54;;;;;;;8.50;1.30;;;6.30;99.90;;;;;;5011711;28;20075;-51
2022/04/09 08:53:23;;;;;;;7.95;1.13;;;6.20;99.90;;;;;;5012428;28;20136;-49
2022/04/09 08:55:51;;;;;;;5.53;1.25;;;6.00;99.90;;;;;;5012535;28;20120;-49
2022/04/09 08:58:17;;;;;;;11.65;1.50;;;6.00;99.90;;;;;;4990953;28;20056;-50
2022/04/09 09:00:45;;;;;;;9.85;1.48;;;6.10;99.90;;;;;;4998977;28;20037;-51
2022/04/09 09:03:14;;;;;;;6.82;1.40;;;6.50;99.90;;;;;;5002026;28;20049;-48
2022/04/09 09:05:52;;;;;;;10.25;2.00;;;6.70;99.90;;;;;;5001551;28;20516;-50
2022/04/09 09:08:41;;;;;;;8.60;2.53;;;6.90;99.90;;;;;;5010609;28;20041;-49
2022/04/09 09:11:07;;;;;;;7.57;2.25;;;7.20;99.90;;;;;;5010070;28;20449;-50
2022/04/09 09:13:53;;;;;;;8.80;2.00;;;7.40;99.90;;;;;;5002591;28;20157;-49
2022/04/09 09:16:23;;;;;;;8.77;1.88;;;7.70;99.90;;;;;;4998433;28;20041;-48
2022/04/09 09:18:55;;;;;;;10.15;2.03;;;7.90;99.90;;;;;;5001999;28;20520;-48
2022/04/09 09:21:26;;;;;;;8.13;1.42;;;8.00;99.90;;;;;;5002429;28;20042;-49
2022/04/09 09:24:13;;;;;;;7.63;1.27;;;7.80;99.90;;;;;;5009711;28;20057;-48
2022/04/09 09:26:39;;;;;;;6.72;1.08;;;7.60;99.90;;;;;;5004394;28;20046;-52
2022/04/09 09:29:05;;;;;;;9.63;1.30;;;7.60;99.90;;;;;;5008753;28;20367;-49
2022/04/09 09:31:45;;;;;;;7.65;1.23;;;7.30;99.90;;;;;;4993783;28;20057;-47
2022/04/09 09:34:16;;;;;;;8.68;1.33;;;7.10;99.90;;;;;;5010578;28;20041;-50
2022/04/09 09:36:46;;;;;;;6.43;0.90;;;6.90;99.90;;;;;;5009896;28;20041;-50
2022/04/09 09:39:14;;;;;;;7.60;0.90;;;6.70;99.90;;;;;;5002870;28;20022;-49
2022/04/09 09:41:55;;;;;;;5.97;1.65;;;6.90;99.90;;;;;;5010591;28;20044;-52
2022/04/09 09:44:26;;;;;;;9.07;1.75;;;7.00;99.90;;;;;;5009821;28;20400;-50
2022/04/09 09:47:04;;;;;;;11.52;1.92;;;7.60;99.90;;;;;;5010070;28;20064;-50
2022/04/09 09:49:53;;;;;;;9.57;2.33;;;7.50;99.90;;;;;;5011383;28;20042;-49
2022/04/09 09:52:27;;;;;;;10.32;2.42;;;7.70;99.90;;;;;;4992507;28;20049;-49
2022/04/09 09:55:05;;;;;;;16.10;2.95;;;8.10;99.90;;;;;;5011379;28;20504;-52
2022/04/09 09:57:32;;;;;;;7.65;1.45;;;8.00;99.90;;;;;;5005814;28;20052;-48
2022/04/09 10:00:04;;;;;;;5.82;0.93;;;7.80;99.90;;;;;;5008877;28;20057;-50
2022/04/09 10:02:30;;;;;;;4.55;0.90;;;7.70;99.90;;;;;;4993918;28;20041;-47
2022/04/09 10:04:56;;;;;;;6.25;0.98;;;7.80;99.90;;;;;;5011334;28;20400;-50
2022/04/09 10:07:24;;;;;;;7.60;1.20;;;7.90;99.90;;;;;;5010371;28;20136;-48
2022/04/09 10:09:50;;;;;;;6.57;1.13;;;8.10;99.90;;;;;;5011169;28;20046;-48
2022/04/09 10:12:25;;;;;;;6.88;1.40;;;8.10;99.90;;;;;;5011277;28;20072;-48
2022/04/09 10:14:56;;;;;;;7.53;1.33;;;8.30;99.90;;;;;;5006408;28;20081;-48
2022/04/09 10:17:24;;;;;;;7.35;1.30;;;8.30;99.90;;;;;;4997738;28;20393;-53
2022/04/09 10:19:56;;;;;;;8.07;1.30;;;8.10;99.90;;;;;;5011549;28;20065;-49
2022/04/09 10:22:28;;;;;;;7.05;1.05;;;7.60;99.90;;;;;;5010904;28;20449;-48
2022/04/09 10:24:55;;;;;;;4.80;0.93;;;7.00;99.90;;;;;;5009753;28;20030;-49
2022/04/09 10:27:42;;;;;;;8.88;1.80;;;6.90;99.90;;;;;;5008676;28;20402;-51
2022/04/09 10:30:08;;;;;;;7.35;2.22;;;6.80;99.90;;;;;;5010241;28;20089;-52
2022/04/09 10:32:46;;;;;;;4.00;1.17;;;6.80;99.90;;;;;;5010602;28;20042;-49
2022/04/09 10:35:24;;;;;;;7.25;1.30;;;6.70;99.90;;;;;;5010814;28;20038;-51
2022/04/09 10:38:20;;;;;;;10.18;1.30;;;7.00;99.90;;;;;;5009052;28;20433;-48
2022/04/09 10:40:48;;;;;;;10.25;1.60;;;7.20;99.90;;;;;;5009324;28;20053;-48
2022/04/09 10:43:25;;;;;;;6.20;1.02;;;7.30;99.90;;;;;;5010135;28;20057;-49
2022/04/09 10:48:30;;;;;;;10.50;1.30;;;7.90;99.90;;;;;;5010298;28;20089;-49
2022/04/09 10:51:21;;;;;;;5.57;1.58;;;8.10;99.90;;;;;;5011003;28;20046;-49
2022/04/09 10:53:49;;;;;;;6.30;1.15;;;8.20;99.90;;;;;;5008672;28;20045;-52
2022/04/09 10:56:29;;;;;;;7.32;1.17;;;8.30;99.90;;;;;;4997504;28;20123;-50
2022/04/09 10:59:13;;;;;;;7.63;1.38;;;8.40;99.90;;;;;;5007690;28;20497;-53
2022/04/09 11:01:51;;;;;;;10.15;1.80;;;8.80;99.90;;;;;;5002072;28;20039;-49
2022/04/09 11:04:34;;;;;;;9.90;1.38;;;9.00;99.90;;;;;;5009915;28;20113;-48
2022/04/09 11:07:09;;;;;;;8.63;1.30;;;9.20;99.90;;;;;;5010042;28;20037;-48
2022/04/09 11:09:58;;;;;;;10.32;1.60;;;9.20;99.90;;;;;;5000178;28;20046;-53
2022/04/09 11:12:39;;;;;;;7.03;1.17;;;9.10;99.90;;;;;;5001988;28;20038;-52
2022/04/09 11:15:11;;;;;;;5.32;1.27;;;9.40;99.90;;;;;;4993020;28;20096;-49
2022/04/09 11:17:38;;;;;;;4.55;0.80;;;9.20;99.90;;;;;;4997490;28;20034;-49
2022/04/09 11:20:12;;;;;;;7.60;1.45;;;7.80;99.90;;;;;;5001490;28;20088;-47
2022/04/09 11:22:38;;;;;;;;;;;7.60;99.90;;;;;;4999965;28;20136;-49
2022/04/09 11:25:05;;;;;;;11.50;1.38;;;7.40;99.90;;;;;;5000173;28;20428;-50
2022/04/09 11:27:31;;;;;;;6.28;1.02;;;7.20;99.90;;;;;;4997319;28;20037;-49
2022/04/09 11:29:57;;;;;;;4.68;0.88;;;7.20;99.90;;;;;;5000708;28;20366;-50
2022/04/09 11:32:24;;;;;;;4.82;0.90;;;7.60;99.90;;;;;;4994378;28;20063;-50
2022/04/09 11:34:58;;;;;;;6.03;0.95;;;8.30;99.90;;;;;;4988748;28;20034;-46
2022/04/09 11:37:29;;;;;;;6.15;0.88;;;8.30;99.90;;;;;;4998706;28;20521;-49
2022/04/09 11:39:56;;;;;;;4.15;0.70;;;7.80;99.90;;;;;;5000424;28;20509;-49
2022/04/09 11:42:22;;;;;;;6.07;0.82;;;8.10;99.90;;;;;;4967792;28;20069;-49
2022/04/09 11:44:48;;;;;;;6.25;1.00;;;8.30;99.90;;;;;;4999034;28;20464;-47
2022/04/09 11:47:16;;;;;;;6.25;1.25;;;8.20;99.90;;;;;;4998440;28;20104;-50
2022/04/09 11:49:49;;;;;;;5.35;0.90;;;6.90;99.90;;;;;;5002857;28;20038;-49
2022/04/09 11:52:28;;;;;;;5.90;1.10;;;6.00;99.90;;;;;;5006889;28;20128;-48
2022/04/09 11:54:55;;;;;;;5.25;1.05;;;6.00;99.90;;;;;;5004428;28;20041;-50
2022/04/09 11:57:22;;;;;;;10.05;1.20;;;5.70;99.90;;;;;;5010154;28;20484;-48
2022/04/09 11:59:55;;;;;;;9.18;1.23;;;5.50;99.90;;;;;;5011690;28;20384;-51
2022/04/09 12:02:25;;;;;;;7.70;1.27;;;5.30;99.90;;;;;;5011109;28;20469;-50
2022/04/09 12:04:52;;;;;;;7.68;1.30;;;5.50;99.90;;;;;;5011812;28;20041;-52
2022/04/09 12:07:18;;;;;;;7.65;1.33;;;5.60;99.90;;;;;;5011501;28;20397;-49
2022/04/09 12:09:44;;;;;;;7.45;1.48;;;5.40;99.90;;;;;;5011249;28;20034;-48
2022/04/09 12:12:11;;;;;;;7.88;1.38;;;6.00;99.90;;;;;;5011328;28;20033;-51
2022/04/09 12:14:37;;;;;;;8.13;1.70;;;6.40;99.90;;;;;;5010847;28;20575;-46
2022/04/09 12:17:14;;;;;;;9.27;1.90;;;6.90;99.90;;;;;;5011649;28;20668;-47
2022/04/09 12:19:43;;;;;;;9.15;2.00;;;7.20;99.90;;;;;;5011334;28;20041;-50
2022/04/09 12:22:23;;;;;;;10.95;2.60;;;7.30;99.90;;;;;;5010995;28;20385;-47
2022/04/09 12:24:52;;;;;;;5.95;1.13;;;6.90;99.90;;;;;;5011787;28;20044;-47
2022/04/09 12:27:18;;;;;;;4.07;0.80;;;6.30;99.90;;;;;;5012290;28;20041;-46
2022/04/09 12:29:55;;;;;;;5.10;0.90;;;5.80;99.90;;;;;;5010850;28;20117;-49
2022/04/09 12:32:26;;;;;;;6.18;1.52;;;5.80;99.90;;;;;;5011475;28;20508;-50
2022/04/09 12:35:02;;;;;;;6.97;1.55;;;5.80;99.90;;;;;;5011360;28;20579;-49
2022/04/09 12:37:28;;;;;;;9.10;1.55;;;6.00;99.90;;;;;;5010951;28;20571;-47
2022/04/09 12:40:17;;;;;;;9.35;1.67;;;6.20;99.90;;;;;;5010851;28;20034;-49
2022/04/09 12:42:43;;;;;;;4.03;0.95;;;6.50;99.90;;;;;;5010427;28;20050;-50
2022/04/09 12:45:11;;;;;;;8.13;1.05;;;6.30;99.90;;;;;;5011135;28;20044;-48
2022/04/09 12:47:37;;;;;;;6.57;1.40;;;6.70;99.90;;;;;;4993272;28;20066;-47
2022/04/09 12:50:04;;;;;;;5.15;1.30;;;7.10;99.90;;;;;;5011395;28;20129;-48
2022/04/09 12:52:30;;;;;;;9.25;1.38;;;7.80;99.90;;;;;;5011427;28;20448;-50
2022/04/09 12:54:56;;;;;;;8.10;1.40;;;7.70;99.90;;;;;;5011340;28;20060;-46
2022/04/09 12:57:22;;;;;;;7.53;1.70;;;8.10;99.90;;;;;;5010199;28;20038;-48
2022/04/09 12:59:48;;;;;;;10.68;2.20;;;8.40;99.90;;;;;;5011632;28;20120;-47